sensor_id;sensor_type;location;lat;lon;timestamp;P1;durP1;ratioP1;P2;durP2;ratioP2
69260;SDS011;56378;52.404;20.816;2023-04-03T00:00:56;3.20;;;0.60;;
69260;SDS011;56378;52.404;20.816;2023-04-03T00:03:22;2.63;;;0.80;;
69260;SDS011;56378;52.404;20.816;2023-04-03T00:05:49;3.50;;;0.98;;
69260;SDS011;56378;52.404;20.816;2023-04-03T00:08:16;3.78;;;0.90;;
69260;SDS011;56378;52.404;20.816;2023-04-03T00:10:42;2.73;;;0.80;;
69260;SDS011;56378;52.404;20.816;2023-04-03T00:13:08;2.75;;;0.60;;
69260;SDS011;56378;52.404;20.816;2023-04-03T00:15:34;3.65;;;0.55;;
69260;SDS011;56378;52.404;20.816;2023-04-03T00:18:01;4.15;;;0.80;;
69260;SDS011;56378;52.404;20.816;2023-04-03T00:20:27;2.13;;;0.63;;
69260;SDS011;56378;52.404;20.816;2023-04-03T00:22:53;2.90;;;0.50;;
69260;SDS011;56378;52.404;20.816;2023-04-03T00:25:21;4.25;;;0.80;;
69260;SDS011;56378;52.404;20.816;2023-04-03T00:27:47;4.35;;;0.63;;
69260;SDS011;56378;52.404;20.816;2023-04-03T00:30:14;3.27;;;0.70;;
69260;SDS011;56378;52.404;20.816;2023-04-03T00:32:42;3.90;;;0.60;;
69260;SDS011;56378;52.404;20.816;2023-04-03T00:35:08;2.70;;;0.50;;
69260;SDS011;56378;52.404;20.816;2023-04-03T00:37:34;2.25;;;0.40;;
69260;SDS011;56378;52.404;20.816;2023-04-03T00:40:00;1.90;;;0.60;;
69260;SDS011;56378;52.404;20.816;2023-04-03T00:42:27;3.25;;;0.73;;
69260;SDS011;56378;52.404;20.816;2023-04-03T00:47:21;1.98;;;0.57;;
69260;SDS011;56378;52.404;20.816;2023-04-03T00:49:48;2.90;;;0.50;;
69260;SDS011;56378;52.404;20.816;2023-04-03T00:52:16;2.50;;;0.50;;
69260;SDS011;56378;52.404;20.816;2023-04-03T00:54:45;4.47;;;0.70;;
69260;SDS011;56378;52.404;20.816;2023-04-03T00:57:12;2.78;;;0.45;;
69260;SDS011;56378;52.404;20.816;2023-04-03T00:59:44;4.00;;;0.70;;
69260;SDS011;56378;52.404;20.816;2023-04-03T01:02:14;3.47;;;0.60;;
69260;SDS011;56378;52.404;20.816;2023-04-03T01:04:41;3.92;;;0.80;;
69260;SDS011;56378;52.404;20.816;2023-04-03T01:07:09;2.10;;;0.45;;
69260;SDS011;56378;52.404;20.816;2023-04-03T01:09:37;1.92;;;0.63;;
69260;SDS011;56378;52.404;20.816;2023-04-03T01:12:17;2.60;;;0.50;;
69260;SDS011;56378;52.404;20.816;2023-04-03T01:14:55;2.83;;;0.50;;
69260;SDS011;56378;52.404;20.816;2023-04-03T01:17:32;2.38;;;0.50;;
69260;SDS011;56378;52.404;20.816;2023-04-03T01:22:56;1.83;;;0.50;;
69260;SDS011;56378;52.404;20.816;2023-04-03T01:25:30;7.45;;;0.70;;
69260;SDS011;56378;52.404;20.816;2023-04-03T01:27:57;2.67;;;0.57;;
69260;SDS011;56378;52.404;20.816;2023-04-03T01:30:24;2.20;;;0.50;;
69260;SDS011;56378;52.404;20.816;2023-04-03T01:32:55;3.53;;;0.60;;
69260;SDS011;56378;52.404;20.816;2023-04-03T01:35:20;2.30;;;0.63;;
69260;SDS011;56378;52.404;20.816;2023-04-03T01:37:47;3.10;;;0.70;;
69260;SDS011;56378;52.404;20.816;2023-04-03T01:40:12;4.15;;;0.60;;
69260;SDS011;56378;52.404;20.816;2023-04-03T01:42:38;1.83;;;0.37;;
69260;SDS011;56378;52.404;20.816;2023-04-03T01:45:04;3.08;;;0.60;;
69260;SDS011;56378;52.404;20.816;2023-04-03T01:47:30;1.92;;;0.52;;
69260;SDS011;56378;52.404;20.816;2023-04-03T01:49:56;2.88;;;0.60;;
69260;SDS011;56378;52.404;20.816;2023-04-03T01:52:22;2.63;;;0.60;;
69260;SDS011;56378;52.404;20.816;2023-04-03T01:54:47;3.17;;;0.70;;
69260;SDS011;56378;52.404;20.816;2023-04-03T01:57:13;1.90;;;0.50;;
69260;SDS011;56378;52.404;20.816;2023-04-03T01:59:40;2.95;;;0.65;;
69260;SDS011;56378;52.404;20.816;2023-04-03T02:02:06;4.65;;;0.80;;
69260;SDS011;56378;52.404;20.816;2023-04-03T02:04:32;2.63;;;0.60;;
69260;SDS011;56378;52.404;20.816;2023-04-03T02:06:58;2.80;;;0.77;;
69260;SDS011;56378;52.404;20.816;2023-04-03T02:09:23;3.78;;;0.73;;
69260;SDS011;56378;52.404;20.816;2023-04-03T02:11:49;4.32;;;0.70;;
69260;SDS011;56378;52.404;20.816;2023-04-03T02:14:15;3.70;;;0.70;;
69260;SDS011;56378;52.404;20.816;2023-04-03T02:16:41;4.50;;;0.55;;
69260;SDS011;56378;52.404;20.816;2023-04-03T02:19:06;2.10;;;0.43;;
69260;SDS011;56378;52.404;20.816;2023-04-03T02:21:32;3.88;;;0.60;;
69260;SDS011;56378;52.404;20.816;2023-04-03T02:23:58;3.53;;;0.63;;
69260;SDS011;56378;52.404;20.816;2023-04-03T02:26:24;2.33;;;0.60;;
69260;SDS011;56378;52.404;20.816;2023-04-03T02:28:50;3.47;;;0.60;;
69260;SDS011;56378;52.404;20.816;2023-04-03T02:31:16;3.73;;;0.70;;
69260;SDS011;56378;52.404;20.816;2023-04-03T02:33:43;2.00;;;0.45;;
69260;SDS011;56378;52.404;20.816;2023-04-03T02:36:08;3.70;;;0.57;;
69260;SDS011;56378;52.404;20.816;2023-04-03T02:38:35;4.13;;;0.60;;
69260;SDS011;56378;52.404;20.816;2023-04-03T02:41:05;3.63;;;0.70;;
69260;SDS011;56378;52.404;20.816;2023-04-03T02:43:32;1.58;;;0.40;;
69260;SDS011;56378;52.404;20.816;2023-04-03T02:45:58;3.03;;;0.60;;
69260;SDS011;56378;52.404;20.816;2023-04-03T02:48:24;2.13;;;0.50;;
69260;SDS011;56378;52.404;20.816;2023-04-03T02:50:50;3.08;;;0.65;;
69260;SDS011;56378;52.404;20.816;2023-04-03T02:53:16;2.38;;;0.70;;
69260;SDS011;56378;52.404;20.816;2023-04-03T02:55:42;3.05;;;0.65;;
69260;SDS011;56378;52.404;20.816;2023-04-03T02:58:08;1.70;;;0.37;;
69260;SDS011;56378;52.404;20.816;2023-04-03T03:00:34;3.97;;;0.60;;
69260;SDS011;56378;52.404;20.816;2023-04-03T03:03:00;2.75;;;0.60;;
69260;SDS011;56378;52.404;20.816;2023-04-03T03:05:26;3.27;;;0.53;;
69260;SDS011;56378;52.404;20.816;2023-04-03T03:07:52;2.65;;;0.50;;
69260;SDS011;56378;52.404;20.816;2023-04-03T03:10:19;1.77;;;0.50;;
69260;SDS011;56378;52.404;20.816;2023-04-03T03:12:45;2.50;;;0.60;;
69260;SDS011;56378;52.404;20.816;2023-04-03T03:15:10;4.83;;;0.70;;
69260;SDS011;56378;52.404;20.816;2023-04-03T03:17:36;3.15;;;0.63;;
69260;SDS011;56378;52.404;20.816;2023-04-03T03:20:03;4.13;;;0.73;;
69260;SDS011;56378;52.404;20.816;2023-04-03T03:22:30;3.33;;;0.60;;
69260;SDS011;56378;52.404;20.816;2023-04-03T03:24:55;1.63;;;0.55;;
69260;SDS011;56378;52.404;20.816;2023-04-03T03:27:21;3.70;;;0.67;;
69260;SDS011;56378;52.404;20.816;2023-04-03T03:29:47;3.63;;;0.57;;
69260;SDS011;56378;52.404;20.816;2023-04-03T03:32:12;5.00;;;0.60;;
69260;SDS011;56378;52.404;20.816;2023-04-03T03:34:38;3.03;;;0.70;;
69260;SDS011;56378;52.404;20.816;2023-04-03T03:37:04;2.27;;;0.57;;
69260;SDS011;56378;52.404;20.816;2023-04-03T03:39:30;3.90;;;0.50;;
69260;SDS011;56378;52.404;20.816;2023-04-03T03:41:56;7.13;;;0.50;;
69260;SDS011;56378;52.404;20.816;2023-04-03T03:44:21;2.93;;;0.50;;
69260;SDS011;56378;52.404;20.816;2023-04-03T03:46:47;3.88;;;0.60;;
69260;SDS011;56378;52.404;20.816;2023-04-03T03:49:13;4.50;;;0.70;;
69260;SDS011;56378;52.404;20.816;2023-04-03T03:51:39;4.05;;;0.60;;
69260;SDS011;56378;52.404;20.816;2023-04-03T03:54:05;3.63;;;0.60;;
69260;SDS011;56378;52.404;20.816;2023-04-03T03:56:32;3.92;;;0.50;;
69260;SDS011;56378;52.404;20.816;2023-04-03T03:58:58;2.33;;;0.60;;
69260;SDS011;56378;52.404;20.816;2023-04-03T04:01:24;4.38;;;0.68;;
69260;SDS011;56378;52.404;20.816;2023-04-03T04:03:50;5.83;;;0.80;;
69260;SDS011;56378;52.404;20.816;2023-04-03T04:06:16;3.95;;;0.77;;
69260;SDS011;56378;52.404;20.816;2023-04-03T04:08:42;2.28;;;0.63;;
69260;SDS011;56378;52.404;20.816;2023-04-03T04:11:08;4.27;;;0.63;;
69260;SDS011;56378;52.404;20.816;2023-04-03T04:13:34;2.75;;;0.70;;
69260;SDS011;56378;52.404;20.816;2023-04-03T04:16:00;3.28;;;1.10;;
69260;SDS011;56378;52.404;20.816;2023-04-03T04:18:26;3.43;;;0.60;;
69260;SDS011;56378;52.404;20.816;2023-04-03T04:20:52;2.95;;;0.73;;
69260;SDS011;56378;52.404;20.816;2023-04-03T04:23:18;2.53;;;0.50;;
69260;SDS011;56378;52.404;20.816;2023-04-03T04:25:47;3.00;;;0.52;;
69260;SDS011;56378;52.404;20.816;2023-04-03T04:28:13;3.15;;;0.80;;
69260;SDS011;56378;52.404;20.816;2023-04-03T04:30:40;3.42;;;0.75;;
69260;SDS011;56378;52.404;20.816;2023-04-03T04:33:06;3.03;;;0.73;;
69260;SDS011;56378;52.404;20.816;2023-04-03T04:35:32;3.95;;;0.70;;
69260;SDS011;56378;52.404;20.816;2023-04-03T04:37:58;4.32;;;0.70;;
69260;SDS011;56378;52.404;20.816;2023-04-03T04:40:25;4.78;;;0.80;;
69260;SDS011;56378;52.404;20.816;2023-04-03T04:42:51;2.93;;;0.60;;
69260;SDS011;56378;52.404;20.816;2023-04-03T04:45:16;5.10;;;0.73;;
69260;SDS011;56378;52.404;20.816;2023-04-03T04:47:43;3.63;;;0.90;;
69260;SDS011;56378;52.404;20.816;2023-04-03T04:50:09;2.40;;;0.68;;
69260;SDS011;56378;52.404;20.816;2023-04-03T04:52:35;2.17;;;0.50;;
69260;SDS011;56378;52.404;20.816;2023-04-03T04:55:01;4.82;;;0.90;;
69260;SDS011;56378;52.404;20.816;2023-04-03T04:57:27;2.45;;;0.68;;
69260;SDS011;56378;52.404;20.816;2023-04-03T04:59:53;2.97;;;0.60;;
69260;SDS011;56378;52.404;20.816;2023-04-03T05:02:19;3.08;;;0.60;;
69260;SDS011;56378;52.404;20.816;2023-04-03T05:04:45;3.97;;;0.60;;
69260;SDS011;56378;52.404;20.816;2023-04-03T05:07:11;2.50;;;0.50;;
69260;SDS011;56378;52.404;20.816;2023-04-03T05:09:37;3.30;;;0.60;;
69260;SDS011;56378;52.404;20.816;2023-04-03T05:12:03;4.03;;;0.63;;
69260;SDS011;56378;52.404;20.816;2023-04-03T05:14:29;2.60;;;0.68;;
69260;SDS011;56378;52.404;20.816;2023-04-03T05:16:55;3.15;;;0.65;;
69260;SDS011;56378;52.404;20.816;2023-04-03T05:19:21;3.13;;;0.60;;
69260;SDS011;56378;52.404;20.816;2023-04-03T05:21:47;3.25;;;0.68;;
69260;SDS011;56378;52.404;20.816;2023-04-03T05:24:14;3.15;;;0.88;;
69260;SDS011;56378;52.404;20.816;2023-04-03T05:26:41;2.35;;;0.63;;
69260;SDS011;56378;52.404;20.816;2023-04-03T05:29:08;2.90;;;0.67;;
69260;SDS011;56378;52.404;20.816;2023-04-03T05:31:34;2.60;;;0.60;;
69260;SDS011;56378;52.404;20.816;2023-04-03T05:34:00;4.25;;;0.70;;
69260;SDS011;56378;52.404;20.816;2023-04-03T05:36:26;4.18;;;0.73;;
69260;SDS011;56378;52.404;20.816;2023-04-03T05:38:52;5.20;;;0.60;;
69260;SDS011;56378;52.404;20.816;2023-04-03T05:41:19;2.75;;;0.60;;
69260;SDS011;56378;52.404;20.816;2023-04-03T05:43:46;3.95;;;0.85;;
69260;SDS011;56378;52.404;20.816;2023-04-03T05:46:16;5.13;;;0.98;;
69260;SDS011;56378;52.404;20.816;2023-04-03T05:48:43;3.22;;;0.70;;
69260;SDS011;56378;52.404;20.816;2023-04-03T05:51:17;2.20;;;0.70;;
69260;SDS011;56378;52.404;20.816;2023-04-03T05:53:44;2.92;;;0.80;;
69260;SDS011;56378;52.404;20.816;2023-04-03T05:56:13;3.90;;;1.00;;
69260;SDS011;56378;52.404;20.816;2023-04-03T05:58:38;2.53;;;0.77;;
69260;SDS011;56378;52.404;20.816;2023-04-03T06:01:04;3.70;;;0.80;;
69260;SDS011;56378;52.404;20.816;2023-04-03T06:03:30;2.22;;;0.68;;
69260;SDS011;56378;52.404;20.816;2023-04-03T06:05:56;4.50;;;1.10;;
69260;SDS011;56378;52.404;20.816;2023-04-03T06:08:22;3.17;;;0.80;;
69260;SDS011;56378;52.404;20.816;2023-04-03T06:10:49;3.65;;;0.80;;
69260;SDS011;56378;52.404;20.816;2023-04-03T06:13:15;2.63;;;0.80;;
69260;SDS011;56378;52.404;20.816;2023-04-03T06:15:41;4.10;;;0.80;;
69260;SDS011;56378;52.404;20.816;2023-04-03T06:18:07;3.95;;;0.85;;
69260;SDS011;56378;52.404;20.816;2023-04-03T06:20:33;4.00;;;0.90;;
69260;SDS011;56378;52.404;20.816;2023-04-03T06:22:59;3.30;;;0.93;;
69260;SDS011;56378;52.404;20.816;2023-04-03T06:25:25;1.98;;;0.75;;
69260;SDS011;56378;52.404;20.816;2023-04-03T06:27:51;4.40;;;0.90;;
69260;SDS011;56378;52.404;20.816;2023-04-03T06:30:17;3.65;;;0.82;;
69260;SDS011;56378;52.404;20.816;2023-04-03T06:32:43;2.60;;;0.70;;
69260;SDS011;56378;52.404;20.816;2023-04-03T06:35:09;3.08;;;0.98;;
69260;SDS011;56378;52.404;20.816;2023-04-03T06:37:35;3.30;;;0.90;;
69260;SDS011;56378;52.404;20.816;2023-04-03T06:40:01;3.15;;;0.90;;
69260;SDS011;56378;52.404;20.816;2023-04-03T06:42:28;3.23;;;0.90;;
69260;SDS011;56378;52.404;20.816;2023-04-03T06:44:53;4.18;;;1.13;;
69260;SDS011;56378;52.404;20.816;2023-04-03T06:47:19;4.95;;;1.10;;
69260;SDS011;56378;52.404;20.816;2023-04-03T06:49:45;5.20;;;1.23;;
69260;SDS011;56378;52.404;20.816;2023-04-03T06:52:11;5.28;;;1.20;;
69260;SDS011;56378;52.404;20.816;2023-04-03T06:54:38;3.75;;;1.05;;
69260;SDS011;56378;52.404;20.816;2023-04-03T06:57:05;2.90;;;1.15;;
69260;SDS011;56378;52.404;20.816;2023-04-03T06:59:30;2.50;;;0.90;;
69260;SDS011;56378;52.404;20.816;2023-04-03T07:01:56;2.95;;;0.80;;
69260;SDS011;56378;52.404;20.816;2023-04-03T07:04:23;3.72;;;0.90;;
69260;SDS011;56378;52.404;20.816;2023-04-03T07:06:49;5.23;;;1.20;;
69260;SDS011;56378;52.404;20.816;2023-04-03T07:09:16;3.97;;;1.02;;
69260;SDS011;56378;52.404;20.816;2023-04-03T07:11:42;5.82;;;1.20;;
69260;SDS011;56378;52.404;20.816;2023-04-03T07:14:08;5.13;;;1.30;;
69260;SDS011;56378;52.404;20.816;2023-04-03T07:16:34;4.45;;;1.20;;
69260;SDS011;56378;52.404;20.816;2023-04-03T07:19:00;4.20;;;1.15;;
69260;SDS011;56378;52.404;20.816;2023-04-03T07:21:27;4.50;;;1.25;;
69260;SDS011;56378;52.404;20.816;2023-04-03T07:23:53;4.67;;;1.20;;
69260;SDS011;56378;52.404;20.816;2023-04-03T07:26:19;4.10;;;1.15;;
69260;SDS011;56378;52.404;20.816;2023-04-03T07:28:46;5.93;;;1.20;;
69260;SDS011;56378;52.404;20.816;2023-04-03T07:31:14;2.38;;;1.10;;
69260;SDS011;56378;52.404;20.816;2023-04-03T07:33:40;3.60;;;1.10;;
69260;SDS011;56378;52.404;20.816;2023-04-03T07:36:09;2.73;;;1.37;;
69260;SDS011;56378;52.404;20.816;2023-04-03T07:38:39;2.70;;;1.17;;
69260;SDS011;56378;52.404;20.816;2023-04-03T07:41:05;3.67;;;1.08;;
69260;SDS011;56378;52.404;20.816;2023-04-03T07:43:31;4.07;;;1.10;;
69260;SDS011;56378;52.404;20.816;2023-04-03T07:45:58;3.15;;;1.20;;
69260;SDS011;56378;52.404;20.816;2023-04-03T07:48:24;4.17;;;1.30;;
69260;SDS011;56378;52.404;20.816;2023-04-03T07:50:50;4.18;;;1.30;;
69260;SDS011;56378;52.404;20.816;2023-04-03T07:53:17;4.05;;;0.90;;
69260;SDS011;56378;52.404;20.816;2023-04-03T07:55:46;4.55;;;1.40;;
69260;SDS011;56378;52.404;20.816;2023-04-03T07:58:14;4.38;;;1.30;;
69260;SDS011;56378;52.404;20.816;2023-04-03T08:00:41;3.07;;;1.10;;
69260;SDS011;56378;52.404;20.816;2023-04-03T08:03:09;4.47;;;0.98;;
69260;SDS011;56378;52.404;20.816;2023-04-03T08:05:40;4.03;;;0.95;;
69260;SDS011;56378;52.404;20.816;2023-04-03T08:08:07;4.55;;;1.00;;
69260;SDS011;56378;52.404;20.816;2023-04-03T08:10:34;3.15;;;1.10;;
69260;SDS011;56378;52.404;20.816;2023-04-03T08:13:00;3.23;;;0.87;;
69260;SDS011;56378;52.404;20.816;2023-04-03T08:15:26;4.80;;;0.80;;
69260;SDS011;56378;52.404;20.816;2023-04-03T08:17:52;3.30;;;0.88;;
69260;SDS011;56378;52.404;20.816;2023-04-03T08:20:19;2.78;;;1.00;;
69260;SDS011;56378;52.404;20.816;2023-04-03T08:22:45;3.00;;;0.80;;
69260;SDS011;56378;52.404;20.816;2023-04-03T08:25:11;2.80;;;0.90;;
69260;SDS011;56378;52.404;20.816;2023-04-03T08:27:37;3.85;;;0.95;;
69260;SDS011;56378;52.404;20.816;2023-04-03T08:30:03;2.67;;;0.70;;
69260;SDS011;56378;52.404;20.816;2023-04-03T08:32:29;2.90;;;0.90;;
69260;SDS011;56378;52.404;20.816;2023-04-03T08:34:55;2.60;;;0.98;;
69260;SDS011;56378;52.404;20.816;2023-04-03T08:37:21;5.73;;;1.00;;
69260;SDS011;56378;52.404;20.816;2023-04-03T08:39:47;3.88;;;0.80;;
69260;SDS011;56378;52.404;20.816;2023-04-03T08:42:28;4.03;;;1.00;;
69260;SDS011;56378;52.404;20.816;2023-04-03T08:45:10;2.72;;;0.93;;
69260;SDS011;56378;52.404;20.816;2023-04-03T08:47:50;2.83;;;0.80;;
69260;SDS011;56378;52.404;20.816;2023-04-03T08:50:24;3.75;;;0.80;;
69260;SDS011;56378;52.404;20.816;2023-04-03T08:52:58;1.63;;;0.60;;
69260;SDS011;56378;52.404;20.816;2023-04-03T08:55:27;3.47;;;0.83;;
69260;SDS011;56378;52.404;20.816;2023-04-03T08:58:06;5.10;;;0.60;;
69260;SDS011;56378;52.404;20.816;2023-04-03T09:03:33;3.17;;;0.65;;
69260;SDS011;56378;52.404;20.816;2023-04-03T09:08:36;2.77;;;0.60;;
69260;SDS011;56378;52.404;20.816;2023-04-03T09:11:14;1.80;;;0.50;;
69260;SDS011;56378;52.404;20.816;2023-04-03T09:13:57;3.38;;;0.70;;
69260;SDS011;56378;52.404;20.816;2023-04-03T09:22:31;2.17;;;0.60;;
69260;SDS011;56378;52.404;20.816;2023-04-03T09:24:57;1.88;;;0.50;;
69260;SDS011;56378;52.404;20.816;2023-04-03T09:27:36;3.60;;;1.27;;
69260;SDS011;56378;52.404;20.816;2023-04-03T09:30:02;2.30;;;0.80;;
69260;SDS011;56378;52.404;20.816;2023-04-03T09:32:30;2.60;;;0.60;;
69260;SDS011;56378;52.404;20.816;2023-04-03T09:35:03;3.03;;;0.60;;
69260;SDS011;56378;52.404;20.816;2023-04-03T09:37:44;3.35;;;0.90;;
69260;SDS011;56378;52.404;20.816;2023-04-03T09:40:31;4.28;;;0.65;;
69260;SDS011;56378;52.404;20.816;2023-04-03T09:43:19;2.53;;;0.70;;
69260;SDS011;56378;52.404;20.816;2023-04-03T09:45:48;2.00;;;0.83;;
69260;SDS011;56378;52.404;20.816;2023-04-03T09:48:24;4.18;;;0.80;;
69260;SDS011;56378;52.404;20.816;2023-04-03T09:50:54;1.85;;;0.57;;
69260;SDS011;56378;52.404;20.816;2023-04-03T09:53:34;2.88;;;0.88;;
69260;SDS011;56378;52.404;20.816;2023-04-03T09:56:09;2.60;;;0.80;;
69260;SDS011;56378;52.404;20.816;2023-04-03T09:58:50;1.83;;;0.60;;
69260;SDS011;56378;52.404;20.816;2023-04-03T10:01:33;2.03;;;0.70;;
69260;SDS011;56378;52.404;20.816;2023-04-03T10:04:16;3.50;;;0.98;;
69260;SDS011;56378;52.404;20.816;2023-04-03T10:12:08;2.60;;;0.80;;
69260;SDS011;56378;52.404;20.816;2023-04-03T10:14:53;2.03;;;0.70;;
69260;SDS011;56378;52.404;20.816;2023-04-03T10:33:36;1.73;;;0.50;;
69260;SDS011;56378;52.404;20.816;2023-04-03T10:36:15;2.47;;;0.60;;
69260;SDS011;56378;52.404;20.816;2023-04-03T10:38:57;2.17;;;0.50;;
69260;SDS011;56378;52.404;20.816;2023-04-03T10:47:05;1.52;;;0.60;;
69260;SDS011;56378;52.404;20.816;2023-04-03T10:49:38;2.40;;;0.60;;
69260;SDS011;56378;52.404;20.816;2023-04-03T10:52:20;2.00;;;0.67;;
69260;SDS011;56378;52.404;20.816;2023-04-03T10:57:37;1.45;;;0.60;;
69260;SDS011;56378;52.404;20.816;2023-04-03T11:00:07;2.75;;;0.47;;
69260;SDS011;56378;52.404;20.816;2023-04-03T11:02:56;2.90;;;0.70;;
69260;SDS011;56378;52.404;20.816;2023-04-03T11:05:28;2.53;;;0.80;;
69260;SDS011;56378;52.404;20.816;2023-04-03T11:08:56;1.90;;;0.60;;
69260;SDS011;56378;52.404;20.816;2023-04-03T11:11:35;1.73;;;0.60;;
69260;SDS011;56378;52.404;20.816;2023-04-03T11:27:42;2.78;;;0.60;;
69260;SDS011;56378;52.404;20.816;2023-04-03T11:30:31;2.25;;;0.60;;
69260;SDS011;56378;52.404;20.816;2023-04-03T11:33:35;2.33;;;0.50;;
69260;SDS011;56378;52.404;20.816;2023-04-03T11:38:46;2.28;;;0.60;;
69260;SDS011;56378;52.404;20.816;2023-04-03T11:41:14;3.50;;;0.50;;
69260;SDS011;56378;52.404;20.816;2023-04-03T11:43:41;2.95;;;0.60;;
69260;SDS011;56378;52.404;20.816;2023-04-03T11:46:21;2.33;;;0.57;;
69260;SDS011;56378;52.404;20.816;2023-04-03T11:48:48;2.08;;;0.40;;
69260;SDS011;56378;52.404;20.816;2023-04-03T11:53:53;3.42;;;0.50;;
69260;SDS011;56378;52.404;20.816;2023-04-03T12:04:20;1.67;;;0.63;;
69260;SDS011;56378;52.404;20.816;2023-04-03T12:06:53;3.03;;;0.60;;
69260;SDS011;56378;52.404;20.816;2023-04-03T12:17:47;2.28;;;0.80;;
69260;SDS011;56378;52.404;20.816;2023-04-03T12:20:46;2.17;;;0.60;;
69260;SDS011;56378;52.404;20.816;2023-04-03T12:23:28;2.57;;;0.77;;
69260;SDS011;56378;52.404;20.816;2023-04-03T12:28:44;3.28;;;1.52;;
69260;SDS011;56378;52.404;20.816;2023-04-03T12:31:11;1.88;;;0.60;;
69260;SDS011;56378;52.404;20.816;2023-04-03T12:36:18;3.47;;;0.80;;
69260;SDS011;56378;52.404;20.816;2023-04-03T12:39:03;2.25;;;0.50;;
69260;SDS011;56378;52.404;20.816;2023-04-03T12:44:13;1.45;;;0.57;;
69260;SDS011;56378;52.404;20.816;2023-04-03T12:46:44;2.15;;;0.45;;
69260;SDS011;56378;52.404;20.816;2023-04-03T12:51:51;4.07;;;1.20;;
69260;SDS011;56378;52.404;20.816;2023-04-03T12:59:42;2.95;;;1.02;;
69260;SDS011;56378;52.404;20.816;2023-04-03T13:02:26;1.87;;;0.77;;
69260;SDS011;56378;52.404;20.816;2023-04-03T13:04:54;2.92;;;0.70;;
69260;SDS011;56378;52.404;20.816;2023-04-03T13:10:38;2.50;;;0.80;;
69260;SDS011;56378;52.404;20.816;2023-04-03T13:15:21;3.20;;;0.90;;
69260;SDS011;56378;52.404;20.816;2023-04-03T13:17:50;2.20;;;0.60;;
69260;SDS011;56378;52.404;20.816;2023-04-03T13:20:25;2.42;;;0.70;;
69260;SDS011;56378;52.404;20.816;2023-04-03T13:22:55;2.15;;;0.52;;
69260;SDS011;56378;52.404;20.816;2023-04-03T13:25:28;2.60;;;0.70;;
69260;SDS011;56378;52.404;20.816;2023-04-03T13:27:58;3.17;;;0.80;;
69260;SDS011;56378;52.404;20.816;2023-04-03T13:30:30;1.35;;;0.60;;
69260;SDS011;56378;52.404;20.816;2023-04-03T13:32:59;3.35;;;0.75;;
69260;SDS011;56378;52.404;20.816;2023-04-03T13:40:52;3.00;;;0.63;;
69260;SDS011;56378;52.404;20.816;2023-04-03T13:43:21;2.00;;;0.70;;
69260;SDS011;56378;52.404;20.816;2023-04-03T13:46:25;3.75;;;1.00;;
69260;SDS011;56378;52.404;20.816;2023-04-03T13:48:44;2.95;;;1.10;;
69260;SDS011;56378;52.404;20.816;2023-04-03T13:51:21;2.90;;;0.80;;
69260;SDS011;56378;52.404;20.816;2023-04-03T13:54:00;1.70;;;0.47;;
69260;SDS011;56378;52.404;20.816;2023-04-03T13:58:54;3.47;;;0.70;;
69260;SDS011;56378;52.404;20.816;2023-04-03T14:01:22;3.00;;;0.60;;
69260;SDS011;56378;52.404;20.816;2023-04-03T14:03:56;3.20;;;0.60;;
69260;SDS011;56378;52.404;20.816;2023-04-03T14:06:26;2.53;;;0.80;;
69260;SDS011;56378;52.404;20.816;2023-04-03T14:08:53;2.08;;;0.75;;
69260;SDS011;56378;52.404;20.816;2023-04-03T14:11:23;2.40;;;0.60;;
69260;SDS011;56378;52.404;20.816;2023-04-03T14:13:53;1.20;;;0.53;;
69260;SDS011;56378;52.404;20.816;2023-04-03T14:16:22;0.95;;;0.50;;
69260;SDS011;56378;52.404;20.816;2023-04-03T14:18:52;3.53;;;0.70;;
69260;SDS011;56378;52.404;20.816;2023-04-03T14:21:19;2.35;;;0.60;;
69260;SDS011;56378;52.404;20.816;2023-04-03T14:23:46;1.23;;;0.45;;
69260;SDS011;56378;52.404;20.816;2023-04-03T14:26:14;3.60;;;0.50;;
69260;SDS011;56378;52.404;20.816;2023-04-03T14:28:46;6.03;;;0.90;;
69260;SDS011;56378;52.404;20.816;2023-04-03T14:31:15;1.70;;;0.80;;
69260;SDS011;56378;52.404;20.816;2023-04-03T14:33:42;3.17;;;0.70;;
69260;SDS011;56378;52.404;20.816;2023-04-03T14:36:16;1.75;;;0.68;;
69260;SDS011;56378;52.404;20.816;2023-04-03T14:38:45;2.70;;;0.80;;
69260;SDS011;56378;52.404;20.816;2023-04-03T14:41:12;1.92;;;0.60;;
69260;SDS011;56378;52.404;20.816;2023-04-03T14:43:40;1.92;;;0.75;;
69260;SDS011;56378;52.404;20.816;2023-04-03T14:46:13;2.58;;;0.90;;
69260;SDS011;56378;52.404;20.816;2023-04-03T14:48:47;2.17;;;0.75;;
69260;SDS011;56378;52.404;20.816;2023-04-03T14:51:13;3.83;;;0.60;;
69260;SDS011;56378;52.404;20.816;2023-04-03T14:53:41;2.78;;;0.70;;
69260;SDS011;56378;52.404;20.816;2023-04-03T14:56:12;2.22;;;0.90;;
69260;SDS011;56378;52.404;20.816;2023-04-03T14:58:48;2.10;;;0.60;;
69260;SDS011;56378;52.404;20.816;2023-04-03T15:01:17;2.90;;;0.77;;
69260;SDS011;56378;52.404;20.816;2023-04-03T15:03:43;2.50;;;0.60;;
69260;SDS011;56378;52.404;20.816;2023-04-03T15:06:12;3.53;;;0.60;;
69260;SDS011;56378;52.404;20.816;2023-04-03T15:08:39;2.22;;;0.50;;
69260;SDS011;56378;52.404;20.816;2023-04-03T15:11:06;3.72;;;0.70;;
69260;SDS011;56378;52.404;20.816;2023-04-03T15:13:33;1.55;;;0.60;;
69260;SDS011;56378;52.404;20.816;2023-04-03T15:15:59;2.40;;;0.70;;
69260;SDS011;56378;52.404;20.816;2023-04-03T15:18:26;2.05;;;0.70;;
69260;SDS011;56378;52.404;20.816;2023-04-03T15:20:53;2.08;;;0.80;;
69260;SDS011;56378;52.404;20.816;2023-04-03T15:23:20;2.20;;;0.60;;
69260;SDS011;56378;52.404;20.816;2023-04-03T15:25:51;1.75;;;0.70;;
69260;SDS011;56378;52.404;20.816;2023-04-03T15:28:27;2.78;;;1.05;;
69260;SDS011;56378;52.404;20.816;2023-04-03T15:30:53;3.78;;;1.30;;
69260;SDS011;56378;52.404;20.816;2023-04-03T15:33:19;2.65;;;0.57;;
69260;SDS011;56378;52.404;20.816;2023-04-03T15:35:45;1.40;;;0.60;;
69260;SDS011;56378;52.404;20.816;2023-04-03T15:38:11;2.70;;;0.90;;
69260;SDS011;56378;52.404;20.816;2023-04-03T15:40:37;2.70;;;1.00;;
69260;SDS011;56378;52.404;20.816;2023-04-03T15:43:04;1.85;;;0.70;;
69260;SDS011;56378;52.404;20.816;2023-04-03T15:45:31;1.83;;;0.65;;
69260;SDS011;56378;52.404;20.816;2023-04-03T15:47:58;3.40;;;0.82;;
69260;SDS011;56378;52.404;20.816;2023-04-03T15:50:24;2.03;;;0.80;;
69260;SDS011;56378;52.404;20.816;2023-04-03T15:52:51;3.00;;;1.00;;
69260;SDS011;56378;52.404;20.816;2023-04-03T15:55:20;2.92;;;1.05;;
69260;SDS011;56378;52.404;20.816;2023-04-03T15:57:47;2.45;;;0.93;;
69260;SDS011;56378;52.404;20.816;2023-04-03T16:00:13;2.73;;;0.90;;
69260;SDS011;56378;52.404;20.816;2023-04-03T16:02:39;3.60;;;0.90;;
69260;SDS011;56378;52.404;20.816;2023-04-03T16:05:06;2.50;;;0.90;;
69260;SDS011;56378;52.404;20.816;2023-04-03T16:07:32;2.20;;;0.60;;
69260;SDS011;56378;52.404;20.816;2023-04-03T16:09:58;2.23;;;0.87;;
69260;SDS011;56378;52.404;20.816;2023-04-03T16:12:24;3.55;;;1.33;;
69260;SDS011;56378;52.404;20.816;2023-04-03T16:14:49;3.20;;;1.10;;
69260;SDS011;56378;52.404;20.816;2023-04-03T16:17:16;3.22;;;0.90;;
69260;SDS011;56378;52.404;20.816;2023-04-03T16:19:42;1.70;;;0.70;;
69260;SDS011;56378;52.404;20.816;2023-04-03T16:22:08;2.30;;;0.95;;
69260;SDS011;56378;52.404;20.816;2023-04-03T16:24:34;2.88;;;0.85;;
69260;SDS011;56378;52.404;20.816;2023-04-03T16:27:00;2.60;;;0.90;;
69260;SDS011;56378;52.404;20.816;2023-04-03T16:29:26;3.83;;;1.13;;
69260;SDS011;56378;52.404;20.816;2023-04-03T16:31:52;5.53;;;1.10;;
69260;SDS011;56378;52.404;20.816;2023-04-03T16:34:18;2.45;;;0.80;;